x

South Santa Rosa Is. Ca (46069) Wave Buoy

4:50 - Sun 3rd May 2015 All times are PDT. -7 hours from GMT.

  • Sig Wave height 5.9ft
  • Peak Period 24s
  • Average Period 7s
  • Wind
    13mph, 18mph gusts
  • Sea Temp 61°f
  • Ar Temp 57°f
  • Sea Pressure 1011.5mb
  • South Santa Rosa Is. Ca
  • South Santa Rosa Is. Ca

More Historic Weather Station data

Upgrade to MSW Pro to gain access to the past 30 days of data for over 8000 Wavebouys and Weather Stations around the globe.

Join Pro

Comparision Forecast

View Surf forecast
   
Dom 05/03 4:50 6ft 24s 7s 13 18 mph 1011.5mb 61f 57f
3:50 6ft 9s 7s 13 16 mph 1011.5mb 61f 57f
2:50 6ft 9s 7s 16 20 mph 1011.2mb 61f 58f
1:50 6ft 9s 6s 18 22 mph 1011.1mb 61f 58f
12:50 6ft 10s 7s 18 22 mph 1011.1mb 61f 58f
Sáb 05/02 11:50 6.5ft 10s 7s 20 22 mph 1011.2mb 61f 58f
10:50 5.5ft 10s 6s 18 22 mph 1011.4mb 61f 58f
9:50 5.5ft 9s 7s 18 20 mph 1011.3mb 61f 58f
8:50 6ft 10s 6s 18 20 mph 1010.9mb 61f 59f
7:50 6ft 10s 7s 18 22 mph 1010.6mb 62f 59f
6:50 5ft 10s 7s 18 20 mph 1010.8mb 62f 59f
5:50 5.5ft 10s 7s 16 18 mph 1011.1mb 62f 59f
4:50 5.5ft 10s 7s 16 18 mph 1011.4mb 62f 59f
3:50 5.5ft 10s 7s 16 18 mph 1011.6mb 62f 59f
2:50 5ft 10s 7s 13 16 mph 1011.9mb 62f 59f
1:50 6ft 10s 7s 16 18 mph 1012.4mb 61f 58f
12:50 6ft 10s 7s 16 18 mph 1012.9mb 60f 58f
11:50 5.5ft 10s 7s 13 16 mph 1013.1mb 60f 58f
10:50 5.5ft 10s 7s 16 18 mph 1012.7mb 60f 57f
9:50 6ft 10s 7s 16 18 mph 1012.2mb 60f 57f
8:50 5ft 11s 7s 16 18 mph 1011.9mb 60f 57f
7:50 5ft 11s 7s 13 18 mph 1011.7mb 60f 57f
6:50 5.5ft 11s 7s 16 18 mph 1011.1mb 60f 56f
5:50 5.5ft 11s 8s 16
mph
1010.8mb 60f 57f
4:50 6ft 11s 8s 16 18 mph 1010.7mb 60f 57f
3:50 6ft 11s 8s 13 18 mph 1011mb 60f 57f
2:50 6ft 11s 8s 13 18 mph 1011.2mb 59f 57f
1:50 7ft 11s 8s 16 18 mph 1011.7mb 60f 57f
12:50 7ft 11s 8s 13 16 mph 1012.3mb 60f 58f
Sex 05/01 11:50 6ft 11s 8s 13 16 mph 1012.3mb 60f 58f
10:50 6ft 11s 8s 13 16 mph 1012.3mb 60f 59f
9:50 6ft 11s 8s 11 13 mph 1012.2mb 60f 59f
8:50 6ft 11s 9s 11 13 mph 1011.8mb 60f 59f
7:50 7ft 10s 9s 9 11 mph 1011.7mb 61f 59f
6:50 6.5ft 10s 9s 9 11 mph 1011.6mb 61f 60f
5:50 6ft 11s 9s 9 11 mph 1011.7mb 62f 60f
4:50 6ft 11s 9s 9 11 mph 1011.9mb 62f 59f
3:50 5.5ft 11s 8s 9
mph
1012.5mb 61f 59f
2:50 6ft 11s 8s 7 9 mph 1013mb 61f 58f
1:50 7.5ft 11s 9s 7 9 mph 1013mb 60f 58f
12:50 6.5ft 11s 8s 7 9 mph 1013.2mb 60f 57f
11:50 7ft 11s 9s 7 11 mph 1013.1mb 60f 57f
10:50 7.5ft 11s 9s 7 9 mph 1013.1mb 59f 56f
9:50 8.5ft 11s 9s 4 9 mph 1012.9mb 59f 56f
8:50 7ft 11s 8s 4 7 mph 1012.5mb 58f 55f
7:50 7ft 11s 9s 4 7 mph 1012.1mb 58f 55f
6:50 8ft 11s 9s 4 9 mph 1011.6mb 58f 55f
5:50 7ft 11s 9s 2 4 mph 1011mb 58f 55f
4:50 7.5ft 11s 9s 2 7 mph 1010.8mb 58f 55f
3:50 8.5ft 11s 9s 2 4 mph 1011.1mb 58f 55f
2:50 9ft 12s 9s 7 9 mph 1011.1mb 58f 56f
1:50 9ft 12s 9s 7 11 mph 1011.3mb 58f 56f
12:50 9ft 11s 9s 4 7 mph 1011.5mb 58f 56f
Qui 04/30 11:50 10ft 11s 9s 7 9 mph 1011.2mb 58f 56f
10:50 9ft 12s 9s 11 13 mph 1010.9mb 59f 56f
9:50 9ft 11s 9s 9 11 mph 1010.6mb 59f 56f
8:50 9ft 11s 9s 9 13 mph 1010.2mb 59f 56f
7:50 9ft 11s 9s 9 13 mph 1009.8mb 59f 56f
6:50 9ft 11s 8s 9 13 mph 1009.5mb 59f 57f
5:50 10ft 11s 9s 9 11 mph 1009.7mb 59f 57f
4:50 9ft 13s 8s 11 13 mph 1010mb 59f 57f
3:50 9ft 12s 8s 9 13 mph 1010.2mb 59f 57f
2:50 10.5ft 11s 9s 9 13 mph 1010.7mb 59f 57f
1:50 9.5ft 11s 8s 9 11 mph 1010.9mb 59f 57f
12:50 9ft 10s 8s 9 11 mph 1011.1mb 58f 57f
11:50 9.5ft 11s 8s 9 11 mph 1011.2mb 58f 56f
10:50 10ft 11s 8s 11 13 mph 1010.9mb 57f 56f
9:50 9ft 11s 8s 11 13 mph 1010.5mb 57f 56f
8:50 10ft 11s 8s 13 16 mph 1009.9mb 57f 56f
7:50 10ft 11s 8s 13 16 mph 1009.6mb 57f 56f
6:50 10ft 11s 8s 13 16 mph 1009.4mb 57f 55f
5:50 11ft 11s 8s 16 20 mph 1008.8mb 57f 55f
4:50 10.5ft 11s 8s 16 20 mph 1008.6mb 57f 55f
3:50 12ft 11s 8s 18 22 mph 1008.5mb 57f 56f
2:50 12ft 11s 8s 20 25 mph 1008.4mb 57f 56f
1:50 12ft 11s 8s 22 27 mph 1008.8mb 57f 56f
12:50 12ft 11s 8s 20 25 mph 1009.2mb 58f 56f
Qua 04/29 11:50 11ft 11s 8s 20 27 mph 1009.6mb 58f 56f
10:50 10ft 11s 7s 22 27 mph 1009.7mb 58f 56f
9:50 11ft 10s 7s 22 29 mph 1009.8mb 58f 56f
8:50 11ft 10s 7s 22 27 mph 1009.9mb 58f 56f
7:50 11ft 10s 7s 22 29 mph 1009.8mb 58f 56f
6:50 10ft 10s 7s 22 27 mph 1009.9mb 58f 56f
5:50 9ft 10s 7s 25 29 mph 1010.4mb 58f 56f
4:50 9.5ft 9s 7s 25 29 mph 1010.8mb 58f 56f
3:50 10ft 10s 7s 22 27 mph 1011.2mb 58f 56f
2:50 9.5ft 8s 7s 25 29 mph 1011.9mb 58f 56f
1:50 9ft 9s 7s 25 29 mph 1012.5mb 58f 56f